sensor_id;sensor_type;location;lat;lon;timestamp;pressure;altitude;pressure_sealevel;temperature;humidity
49463;BME280;35357;51.722;0.500;2022-09-12T00:00:43;101234.85;;;18.96;73.79
49463;BME280;35357;51.722;0.500;2022-09-12T00:03:10;101234.13;;;18.99;73.31
49463;BME280;35357;51.722;0.500;2022-09-12T00:05:40;101232.69;;;19.17;73.46
49463;BME280;35357;51.722;0.500;2022-09-12T00:08:07;101228.24;;;19.19;73.10
49463;BME280;35357;51.722;0.500;2022-09-12T00:10:37;101227.24;;;18.94;73.20
49463;BME280;35357;51.722;0.500;2022-09-12T00:13:04;101220.27;;;19.05;72.87
49463;BME280;35357;51.722;0.500;2022-09-12T00:15:31;101212.08;;;19.01;72.89
49463;BME280;35357;51.722;0.500;2022-09-12T00:17:59;101209.38;;;19.03;73.76
49463;BME280;35357;51.722;0.500;2022-09-12T00:20:27;101207.17;;;18.95;73.99
49463;BME280;35357;51.722;0.500;2022-09-12T00:22:55;101209.13;;;18.95;73.39
49463;BME280;35357;51.722;0.500;2022-09-12T00:25:22;101208.65;;;18.85;74.43
49463;BME280;35357;51.722;0.500;2022-09-12T00:27:49;101205.42;;;18.72;74.04
49463;BME280;35357;51.722;0.500;2022-09-12T00:30:16;101204.59;;;18.96;73.77
49463;BME280;35357;51.722;0.500;2022-09-12T00:32:44;101202.44;;;18.97;73.73
49463;BME280;35357;51.722;0.500;2022-09-12T00:35:11;101197.81;;;18.85;73.80
49463;BME280;35357;51.722;0.500;2022-09-12T00:37:38;101192.99;;;18.81;73.91
49463;BME280;35357;51.722;0.500;2022-09-12T00:40:06;101188.53;;;18.81;73.49
49463;BME280;35357;51.722;0.500;2022-09-12T00:42:33;101188.52;;;18.77;73.46
49463;BME280;35357;51.722;0.500;2022-09-12T00:45:00;101188.06;;;18.74;73.64
49463;BME280;35357;51.722;0.500;2022-09-12T00:47:29;101180.80;;;18.73;73.70
49463;BME280;35357;51.722;0.500;2022-09-12T00:50:02;101178.83;;;18.68;73.71
49463;BME280;35357;51.722;0.500;2022-09-12T00:52:34;101179.10;;;19.00;73.63
49463;BME280;35357;51.722;0.500;2022-09-12T00:55:08;101178.36;;;18.73;73.70
49463;BME280;35357;51.722;0.500;2022-09-12T00:57:42;101179.33;;;18.65;74.22
49463;BME280;35357;51.722;0.500;2022-09-12T01:00:14;101176.92;;;18.86;74.37
49463;BME280;35357;51.722;0.500;2022-09-12T01:02:44;101181.41;;;18.62;74.07
49463;BME280;35357;51.722;0.500;2022-09-12T01:05:12;101175.23;;;18.58;74.34
49463;BME280;35357;51.722;0.500;2022-09-12T01:07:41;101172.80;;;18.80;73.99
49463;BME280;35357;51.722;0.500;2022-09-12T01:10:10;101171.73;;;18.50;74.01
49463;BME280;35357;51.722;0.500;2022-09-12T01:12:38;101166.89;;;18.71;73.74
49463;BME280;35357;51.722;0.500;2022-09-12T01:15:07;101167.99;;;18.36;73.98
49463;BME280;35357;51.722;0.500;2022-09-12T01:17:40;101167.13;;;18.63;73.42
49463;BME280;35357;51.722;0.500;2022-09-12T01:20:31;101172.21;;;18.59;73.56
49463;BME280;35357;51.722;0.500;2022-09-12T01:23:20;101172.64;;;18.44;73.88
49463;BME280;35357;51.722;0.500;2022-09-12T01:26:02;101168.62;;;18.32;74.29
49463;BME280;35357;51.722;0.500;2022-09-12T01:28:48;101168.78;;;18.42;73.99
49463;BME280;35357;51.722;0.500;2022-09-12T01:31:22;101163.39;;;18.42;74.10
49463;BME280;35357;51.722;0.500;2022-09-12T01:34:01;101167.13;;;18.59;74.29
49463;BME280;35357;51.722;0.500;2022-09-12T01:36:39;101160.94;;;18.67;73.93
49463;BME280;35357;51.722;0.500;2022-09-12T01:39:15;101164.95;;;18.56;73.97
49463;BME280;35357;51.722;0.500;2022-09-12T01:41:53;101164.48;;;18.56;73.98
49463;BME280;35357;51.722;0.500;2022-09-12T01:44:29;101162.61;;;18.58;74.07
49463;BME280;35357;51.722;0.500;2022-09-12T01:47:05;101155.73;;;18.69;73.90
49463;BME280;35357;51.722;0.500;2022-09-12T01:49:40;101151.97;;;18.44;74.11
49463;BME280;35357;51.722;0.500;2022-09-12T01:52:17;101152.36;;;18.60;74.31
49463;BME280;35357;51.722;0.500;2022-09-12T01:54:50;101149.75;;;18.13;74.42
49463;BME280;35357;51.722;0.500;2022-09-12T01:57:26;101146.86;;;18.45;74.21
49463;BME280;35357;51.722;0.500;2022-09-12T01:59:57;101142.76;;;18.68;74.17
49463;BME280;35357;51.722;0.500;2022-09-12T02:02:27;101141.50;;;18.51;74.21
49463;BME280;35357;51.722;0.500;2022-09-12T02:05:01;101140.36;;;18.51;74.27
49463;BME280;35357;51.722;0.500;2022-09-12T02:07:34;101144.54;;;18.78;74.20
49463;BME280;35357;51.722;0.500;2022-09-12T02:10:06;101142.38;;;18.61;74.14
49463;BME280;35357;51.722;0.500;2022-09-12T02:12:39;101142.03;;;18.57;74.18
49463;BME280;35357;51.722;0.500;2022-09-12T02:15:09;101138.93;;;18.51;74.79
49463;BME280;35357;51.722;0.500;2022-09-12T02:17:42;101138.23;;;18.57;74.71
49463;BME280;35357;51.722;0.500;2022-09-12T02:20:14;101133.65;;;18.55;75.18
49463;BME280;35357;51.722;0.500;2022-09-12T02:22:44;101135.71;;;18.60;75.64
49463;BME280;35357;51.722;0.500;2022-09-12T02:25:17;101135.83;;;18.65;76.16
49463;BME280;35357;51.722;0.500;2022-09-12T02:27:50;101130.46;;;18.44;76.46
49463;BME280;35357;51.722;0.500;2022-09-12T02:30:20;101128.73;;;18.58;76.18
49463;BME280;35357;51.722;0.500;2022-09-12T02:32:56;101126.67;;;18.65;76.61
49463;BME280;35357;51.722;0.500;2022-09-12T02:35:31;101119.36;;;19.04;76.51
49463;BME280;35357;51.722;0.500;2022-09-12T02:38:05;101117.74;;;18.80;76.38
49463;BME280;35357;51.722;0.500;2022-09-12T02:40:35;101111.58;;;18.74;76.66
49463;BME280;35357;51.722;0.500;2022-09-12T02:43:04;101111.00;;;18.94;76.61
49463;BME280;35357;51.722;0.500;2022-09-12T02:45:33;101110.87;;;18.73;77.38
49463;BME280;35357;51.722;0.500;2022-09-12T02:48:05;101106.77;;;18.77;77.40
49463;BME280;35357;51.722;0.500;2022-09-12T02:50:35;101106.83;;;18.50;77.30
49463;BME280;35357;51.722;0.500;2022-09-12T02:53:04;101101.54;;;18.77;77.52
49463;BME280;35357;51.722;0.500;2022-09-12T02:55:34;101096.31;;;18.83;77.35
49463;BME280;35357;51.722;0.500;2022-09-12T02:58:04;101097.09;;;18.55;77.48
49463;BME280;35357;51.722;0.500;2022-09-12T03:00:36;101098.52;;;18.62;77.44
49463;BME280;35357;51.722;0.500;2022-09-12T03:03:21;101098.63;;;18.81;76.78
49463;BME280;35357;51.722;0.500;2022-09-12T03:05:56;101090.69;;;18.78;76.78
49463;BME280;35357;51.722;0.500;2022-09-12T03:08:46;101086.63;;;18.74;76.96
49463;BME280;35357;51.722;0.500;2022-09-12T03:11:25;101088.32;;;18.76;77.37
49463;BME280;35357;51.722;0.500;2022-09-12T03:14:05;101082.22;;;19.29;76.61
49463;BME280;35357;51.722;0.500;2022-09-12T03:16:40;101077.11;;;18.89;77.05
49463;BME280;35357;51.722;0.500;2022-09-12T03:19:18;101077.16;;;18.80;77.46
49463;BME280;35357;51.722;0.500;2022-09-12T03:21:57;101074.36;;;19.00;76.60
49463;BME280;35357;51.722;0.500;2022-09-12T03:24:31;101076.61;;;18.77;77.41
49463;BME280;35357;51.722;0.500;2022-09-12T03:27:03;101075.23;;;19.12;77.14
49463;BME280;35357;51.722;0.500;2022-09-12T03:29:32;101072.98;;;18.71;77.62
49463;BME280;35357;51.722;0.500;2022-09-12T03:31:59;101074.23;;;18.78;77.46
49463;BME280;35357;51.722;0.500;2022-09-12T03:34:26;101071.95;;;19.04;77.41
49463;BME280;35357;51.722;0.500;2022-09-12T03:36:54;101070.32;;;18.88;76.92
49463;BME280;35357;51.722;0.500;2022-09-12T03:39:23;101061.87;;;18.82;78.15
49463;BME280;35357;51.722;0.500;2022-09-12T03:41:50;101061.13;;;19.04;77.72
49463;BME280;35357;51.722;0.500;2022-09-12T03:44:17;101056.53;;;19.07;77.99
49463;BME280;35357;51.722;0.500;2022-09-12T03:46:45;101050.58;;;18.63;79.82
49463;BME280;35357;51.722;0.500;2022-09-12T03:49:13;101049.66;;;18.12;80.69
49463;BME280;35357;51.722;0.500;2022-09-12T03:51:41;101049.33;;;18.37;80.03
49463;BME280;35357;51.722;0.500;2022-09-12T03:54:08;101046.97;;;18.67;80.04
49463;BME280;35357;51.722;0.500;2022-09-12T03:56:41;101048.55;;;18.46;79.88
49463;BME280;35357;51.722;0.500;2022-09-12T03:59:08;101046.88;;;18.78;79.68
49463;BME280;35357;51.722;0.500;2022-09-12T04:01:35;101046.45;;;19.14;79.09
49463;BME280;35357;51.722;0.500;2022-09-12T04:04:02;101046.77;;;18.66;79.07
49463;BME280;35357;51.722;0.500;2022-09-12T04:06:30;101047.50;;;18.53;79.78
49463;BME280;35357;51.722;0.500;2022-09-12T04:08:57;101048.78;;;18.50;79.96
49463;BME280;35357;51.722;0.500;2022-09-12T04:11:24;101048.27;;;18.43;80.84
49463;BME280;35357;51.722;0.500;2022-09-12T04:13:51;101043.88;;;19.02;81.06
49463;BME280;35357;51.722;0.500;2022-09-12T04:16:19;101040.11;;;18.70;81.87
49463;BME280;35357;51.722;0.500;2022-09-12T04:18:45;101043.64;;;19.10;81.90
49463;BME280;35357;51.722;0.500;2022-09-12T04:21:15;101046.54;;;18.64;82.39
49463;BME280;35357;51.722;0.500;2022-09-12T04:23:42;101045.92;;;19.04;82.24
49463;BME280;35357;51.722;0.500;2022-09-12T04:26:11;101042.93;;;19.02;82.52
49463;BME280;35357;51.722;0.500;2022-09-12T04:28:39;101041.71;;;18.99;82.05
49463;BME280;35357;51.722;0.500;2022-09-12T04:31:08;101041.26;;;18.93;82.58
49463;BME280;35357;51.722;0.500;2022-09-12T04:33:37;101036.55;;;19.04;82.04
49463;BME280;35357;51.722;0.500;2022-09-12T04:36:07;101036.73;;;18.89;82.79
49463;BME280;35357;51.722;0.500;2022-09-12T04:38:36;101035.77;;;18.96;82.62
49463;BME280;35357;51.722;0.500;2022-09-12T04:41:10;101031.87;;;18.98;82.53
49463;BME280;35357;51.722;0.500;2022-09-12T04:43:37;101029.84;;;18.73;83.50
49463;BME280;35357;51.722;0.500;2022-09-12T04:46:05;101026.85;;;19.30;82.45
49463;BME280;35357;51.722;0.500;2022-09-12T04:48:32;101028.13;;;19.24;82.53
49463;BME280;35357;51.722;0.500;2022-09-12T04:51:09;101022.87;;;19.05;82.08
49463;BME280;35357;51.722;0.500;2022-09-12T04:53:37;101019.87;;;19.12;81.95
49463;BME280;35357;51.722;0.500;2022-09-12T04:56:06;101017.46;;;18.88;82.75
49463;BME280;35357;51.722;0.500;2022-09-12T04:58:35;101017.04;;;19.27;81.91
49463;BME280;35357;51.722;0.500;2022-09-12T05:01:04;101016.49;;;18.92;82.52
49463;BME280;35357;51.722;0.500;2022-09-12T05:03:32;101015.08;;;19.05;81.83
49463;BME280;35357;51.722;0.500;2022-09-12T05:06:00;101016.62;;;19.59;81.03
49463;BME280;35357;51.722;0.500;2022-09-12T05:08:28;101015.56;;;19.03;82.11
49463;BME280;35357;51.722;0.500;2022-09-12T05:10:55;101017.01;;;18.95;82.66
49463;BME280;35357;51.722;0.500;2022-09-12T05:13:22;101017.80;;;18.91;82.70
49463;BME280;35357;51.722;0.500;2022-09-12T05:15:58;101020.34;;;19.07;82.21
49463;BME280;35357;51.722;0.500;2022-09-12T05:18:27;101020.15;;;19.19;81.80
49463;BME280;35357;51.722;0.500;2022-09-12T05:20:58;101018.17;;;19.20;81.56
49463;BME280;35357;51.722;0.500;2022-09-12T05:23:25;101019.57;;;19.15;81.55
49463;BME280;35357;51.722;0.500;2022-09-12T05:25:55;101018.63;;;19.14;81.59
49463;BME280;35357;51.722;0.500;2022-09-12T05:28:24;101021.66;;;19.65;81.48
49463;BME280;35357;51.722;0.500;2022-09-12T05:30:59;101019.24;;;19.13;81.66
49463;BME280;35357;51.722;0.500;2022-09-12T05:33:27;101022.21;;;19.03;81.89
49463;BME280;35357;51.722;0.500;2022-09-12T05:35:55;101022.11;;;19.08;81.72
49463;BME280;35357;51.722;0.500;2022-09-12T05:38:22;101028.29;;;19.44;81.57
49463;BME280;35357;51.722;0.500;2022-09-12T05:40:50;101029.26;;;19.06;82.16
49463;BME280;35357;51.722;0.500;2022-09-12T05:43:16;101032.51;;;19.18;82.11
49463;BME280;35357;51.722;0.500;2022-09-12T05:45:43;101033.01;;;19.37;81.71
49463;BME280;35357;51.722;0.500;2022-09-12T05:48:11;101035.92;;;19.30;82.21
49463;BME280;35357;51.722;0.500;2022-09-12T05:50:38;101036.50;;;19.26;81.72
49463;BME280;35357;51.722;0.500;2022-09-12T05:53:05;101035.21;;;19.53;81.56
49463;BME280;35357;51.722;0.500;2022-09-12T05:55:32;101039.14;;;19.56;81.88
49463;BME280;35357;51.722;0.500;2022-09-12T05:57:59;101037.99;;;19.74;81.32
49463;BME280;35357;51.722;0.500;2022-09-12T06:00:27;101037.61;;;19.60;80.85
49463;BME280;35357;51.722;0.500;2022-09-12T06:02:54;101037.64;;;19.17;81.58
49463;BME280;35357;51.722;0.500;2022-09-12T06:05:21;101042.10;;;19.43;81.00
49463;BME280;35357;51.722;0.500;2022-09-12T06:07:49;101040.41;;;19.77;81.23
49463;BME280;35357;51.722;0.500;2022-09-12T06:10:16;101041.48;;;19.50;80.68
49463;BME280;35357;51.722;0.500;2022-09-12T06:12:43;101043.76;;;19.76;80.49
49463;BME280;35357;51.722;0.500;2022-09-12T06:15:10;101048.61;;;19.88;80.30
49463;BME280;35357;51.722;0.500;2022-09-12T06:17:37;101050.29;;;19.67;80.36
49463;BME280;35357;51.722;0.500;2022-09-12T06:20:04;101050.32;;;19.76;80.18
49463;BME280;35357;51.722;0.500;2022-09-12T06:22:32;101047.48;;;19.89;79.58
49463;BME280;35357;51.722;0.500;2022-09-12T06:24:59;101049.63;;;19.83;80.31
49463;BME280;35357;51.722;0.500;2022-09-12T06:27:26;101047.84;;;20.01;80.06
49463;BME280;35357;51.722;0.500;2022-09-12T06:29:53;101050.16;;;20.20;79.73
49463;BME280;35357;51.722;0.500;2022-09-12T06:32:21;101047.94;;;20.47;79.46
49463;BME280;35357;51.722;0.500;2022-09-12T06:34:48;101049.41;;;20.64;78.59
49463;BME280;35357;51.722;0.500;2022-09-12T06:37:15;101049.36;;;20.63;78.98
49463;BME280;35357;51.722;0.500;2022-09-12T06:39:42;101055.02;;;20.68;79.12
49463;BME280;35357;51.722;0.500;2022-09-12T06:42:09;101056.38;;;20.89;78.29
49463;BME280;35357;51.722;0.500;2022-09-12T06:44:36;101058.89;;;20.86;78.79
49463;BME280;35357;51.722;0.500;2022-09-12T06:47:04;101059.28;;;20.83;78.86
49463;BME280;35357;51.722;0.500;2022-09-12T06:49:31;101056.39;;;21.23;77.32
49463;BME280;35357;51.722;0.500;2022-09-12T06:51:58;101051.66;;;21.09;77.77
49463;BME280;35357;51.722;0.500;2022-09-12T06:54:25;101045.23;;;20.76;78.35
49463;BME280;35357;51.722;0.500;2022-09-12T06:56:53;101043.47;;;20.98;77.61
49463;BME280;35357;51.722;0.500;2022-09-12T06:59:19;101040.86;;;20.88;78.19
49463;BME280;35357;51.722;0.500;2022-09-12T07:01:46;101039.69;;;20.91;77.66
49463;BME280;35357;51.722;0.500;2022-09-12T07:04:13;101041.45;;;21.31;77.33
49463;BME280;35357;51.722;0.500;2022-09-12T07:06:41;101043.05;;;21.46;76.46
49463;BME280;35357;51.722;0.500;2022-09-12T07:09:10;101044.84;;;21.19;76.35
49463;BME280;35357;51.722;0.500;2022-09-12T07:11:39;101046.37;;;21.33;76.89
49463;BME280;35357;51.722;0.500;2022-09-12T07:14:08;101043.89;;;21.17;76.73
49463;BME280;35357;51.722;0.500;2022-09-12T07:16:36;101044.86;;;21.55;76.19
49463;BME280;35357;51.722;0.500;2022-09-12T07:19:05;101045.44;;;21.00;78.10
49463;BME280;35357;51.722;0.500;2022-09-12T07:21:33;101040.25;;;21.25;77.82
49463;BME280;35357;51.722;0.500;2022-09-12T07:24:00;101041.78;;;22.14;75.40
49463;BME280;35357;51.722;0.500;2022-09-12T07:26:28;101039.61;;;21.45;76.15
49463;BME280;35357;51.722;0.500;2022-09-12T07:28:56;101036.62;;;21.47;76.04
49463;BME280;35357;51.722;0.500;2022-09-12T07:31:26;101039.35;;;21.60;75.27
49463;BME280;35357;51.722;0.500;2022-09-12T07:33:53;101036.78;;;21.72;75.84
49463;BME280;35357;51.722;0.500;2022-09-12T07:36:23;101037.00;;;21.75;75.68
49463;BME280;35357;51.722;0.500;2022-09-12T07:38:53;101039.23;;;22.25;73.84
49463;BME280;35357;51.722;0.500;2022-09-12T07:41:22;101039.19;;;22.25;73.48
49463;BME280;35357;51.722;0.500;2022-09-12T07:43:51;101038.47;;;22.34;74.57
49463;BME280;35357;51.722;0.500;2022-09-12T07:46:19;101033.84;;;22.02;74.01
49463;BME280;35357;51.722;0.500;2022-09-12T07:48:49;101032.63;;;22.25;73.09
49463;BME280;35357;51.722;0.500;2022-09-12T07:51:16;101032.40;;;22.11;73.47
49463;BME280;35357;51.722;0.500;2022-09-12T07:53:44;101032.82;;;22.49;73.41
49463;BME280;35357;51.722;0.500;2022-09-12T07:56:12;101035.89;;;21.76;74.42
49463;BME280;35357;51.722;0.500;2022-09-12T07:58:41;101034.57;;;22.52;72.55
49463;BME280;35357;51.722;0.500;2022-09-12T08:01:13;101041.27;;;22.22;74.06
49463;BME280;35357;51.722;0.500;2022-09-12T08:03:41;101031.85;;;22.04;73.28
49463;BME280;35357;51.722;0.500;2022-09-12T08:06:10;101029.87;;;22.57;71.87
49463;BME280;35357;51.722;0.500;2022-09-12T08:08:39;101032.81;;;22.47;72.95
49463;BME280;35357;51.722;0.500;2022-09-12T08:11:08;101037.40;;;22.59;71.72
49463;BME280;35357;51.722;0.500;2022-09-12T08:13:37;101041.19;;;22.80;72.38
49463;BME280;35357;51.722;0.500;2022-09-12T08:16:06;101039.81;;;22.80;70.60
49463;BME280;35357;51.722;0.500;2022-09-12T08:18:35;101039.05;;;22.57;72.83
49463;BME280;35357;51.722;0.500;2022-09-12T08:21:04;101037.35;;;22.85;71.14
49463;BME280;35357;51.722;0.500;2022-09-12T08:23:32;101041.83;;;22.90;71.23
49463;BME280;35357;51.722;0.500;2022-09-12T08:26:02;101038.84;;;22.73;71.26
49463;BME280;35357;51.722;0.500;2022-09-12T08:28:30;101039.21;;;23.41;70.11
49463;BME280;35357;51.722;0.500;2022-09-12T08:30:59;101036.90;;;22.66;71.65
49463;BME280;35357;51.722;0.500;2022-09-12T08:33:28;101039.69;;;23.48;69.92
49463;BME280;35357;51.722;0.500;2022-09-12T08:36:02;101036.21;;;24.13;67.71
49463;BME280;35357;51.722;0.500;2022-09-12T08:38:29;101034.24;;;24.16;66.87
49463;BME280;35357;51.722;0.500;2022-09-12T08:41:00;101035.92;;;23.88;67.84
49463;BME280;35357;51.722;0.500;2022-09-12T08:43:41;101038.66;;;24.36;66.07
49463;BME280;35357;51.722;0.500;2022-09-12T08:46:16;101037.57;;;24.41;65.83
49463;BME280;35357;51.722;0.500;2022-09-12T08:48:45;101038.49;;;24.49;64.94
49463;BME280;35357;51.722;0.500;2022-09-12T08:51:15;101029.14;;;23.79;65.49
49463;BME280;35357;51.722;0.500;2022-09-12T08:53:44;101025.24;;;24.12;65.37
49463;BME280;35357;51.722;0.500;2022-09-12T08:56:14;101018.30;;;23.63;65.50
49463;BME280;35357;51.722;0.500;2022-09-12T08:58:42;101013.74;;;24.18;64.32
49463;BME280;35357;51.722;0.500;2022-09-12T09:01:16;101008.74;;;24.26;64.87
49463;BME280;35357;51.722;0.500;2022-09-12T09:04:30;101003.20;;;24.15;63.35
49463;BME280;35357;51.722;0.500;2022-09-12T09:07:15;101001.86;;;24.63;63.01
49463;BME280;35357;51.722;0.500;2022-09-12T09:09:56;101004.18;;;24.73;62.75
49463;BME280;35357;51.722;0.500;2022-09-12T09:12:35;101005.00;;;24.84;62.21
49463;BME280;35357;51.722;0.500;2022-09-12T09:15:21;100998.17;;;24.62;62.02
49463;BME280;35357;51.722;0.500;2022-09-12T09:17:54;100996.67;;;24.55;62.36
49463;BME280;35357;51.722;0.500;2022-09-12T09:20:30;101000.02;;;24.68;62.73
49463;BME280;35357;51.722;0.500;2022-09-12T09:23:05;101001.69;;;24.74;62.24
49463;BME280;35357;51.722;0.500;2022-09-12T09:25:41;101010.14;;;24.60;63.46
49463;BME280;35357;51.722;0.500;2022-09-12T09:28:15;101006.86;;;24.15;63.81
49463;BME280;35357;51.722;0.500;2022-09-12T09:30:45;101005.69;;;25.21;61.02
49463;BME280;35357;51.722;0.500;2022-09-12T09:33:20;101004.77;;;24.70;62.40
49463;BME280;35357;51.722;0.500;2022-09-12T09:35:54;101001.58;;;24.55;61.50
49463;BME280;35357;51.722;0.500;2022-09-12T09:38:24;100995.53;;;24.76;61.68
49463;BME280;35357;51.722;0.500;2022-09-12T09:41:08;100991.55;;;24.31;62.41
49463;BME280;35357;51.722;0.500;2022-09-12T09:43:39;100993.33;;;23.97;63.28
49463;BME280;35357;51.722;0.500;2022-09-12T09:46:07;100993.30;;;24.50;63.10
49463;BME280;35357;51.722;0.500;2022-09-12T09:48:36;100992.41;;;24.68;61.90
49463;BME280;35357;51.722;0.500;2022-09-12T09:51:07;100993.11;;;25.24;60.43
49463;BME280;35357;51.722;0.500;2022-09-12T09:53:39;100992.82;;;26.00;59.15
49463;BME280;35357;51.722;0.500;2022-09-12T09:56:12;100990.39;;;26.22;58.78
49463;BME280;35357;51.722;0.500;2022-09-12T09:58:41;100988.05;;;26.01;59.31
49463;BME280;35357;51.722;0.500;2022-09-12T10:01:14;100986.03;;;26.36;58.14
49463;BME280;35357;51.722;0.500;2022-09-12T10:03:47;100981.98;;;26.43;57.39
49463;BME280;35357;51.722;0.500;2022-09-12T10:06:27;100987.32;;;26.60;58.09
49463;BME280;35357;51.722;0.500;2022-09-12T10:09:06;100984.62;;;26.86;57.28
49463;BME280;35357;51.722;0.500;2022-09-12T10:11:39;100980.85;;;26.82;56.10
49463;BME280;35357;51.722;0.500;2022-09-12T10:14:26;100976.38;;;26.85;55.14
49463;BME280;35357;51.722;0.500;2022-09-12T10:16:53;100978.34;;;25.96;53.66
49463;BME280;35357;51.722;0.500;2022-09-12T10:19:23;100978.18;;;25.76;56.73
49463;BME280;35357;51.722;0.500;2022-09-12T10:21:59;100974.54;;;25.97;55.95
49463;BME280;35357;51.722;0.500;2022-09-12T10:24:32;100970.07;;;26.18;54.23
49463;BME280;35357;51.722;0.500;2022-09-12T10:27:07;100963.45;;;26.20;54.76
49463;BME280;35357;51.722;0.500;2022-09-12T10:29:41;100960.44;;;25.31;56.52
49463;BME280;35357;51.722;0.500;2022-09-12T10:32:11;100962.57;;;26.39;55.12
49463;BME280;35357;51.722;0.500;2022-09-12T10:34:42;100962.76;;;26.12;55.57
49463;BME280;35357;51.722;0.500;2022-09-12T10:37:17;100960.77;;;26.52;55.29
49463;BME280;35357;51.722;0.500;2022-09-12T10:39:52;100963.59;;;25.99;53.67
49463;BME280;35357;51.722;0.500;2022-09-12T10:42:44;100960.19;;;26.44;53.80
49463;BME280;35357;51.722;0.500;2022-09-12T10:45:22;100954.29;;;25.99;53.58
49463;BME280;35357;51.722;0.500;2022-09-12T10:47:51;100950.51;;;25.29;55.25
49463;BME280;35357;51.722;0.500;2022-09-12T10:50:22;100945.37;;;25.69;54.42
49463;BME280;35357;51.722;0.500;2022-09-12T10:52:52;100943.99;;;24.94;56.60
49463;BME280;35357;51.722;0.500;2022-09-12T10:55:23;100947.42;;;26.01;55.88
49463;BME280;35357;51.722;0.500;2022-09-12T10:58:04;100946.92;;;26.68;54.61
49463;BME280;35357;51.722;0.500;2022-09-12T11:00:39;100951.45;;;26.12;54.75
49463;BME280;35357;51.722;0.500;2022-09-12T11:03:15;100945.54;;;26.02;53.88
49463;BME280;35357;51.722;0.500;2022-09-12T11:05:52;100942.86;;;26.21;53.68
49463;BME280;35357;51.722;0.500;2022-09-12T11:08:33;100947.69;;;26.29;54.61
49463;BME280;35357;51.722;0.500;2022-09-12T11:11:08;100952.44;;;26.24;53.59
49463;BME280;35357;51.722;0.500;2022-09-12T11:13:54;100949.05;;;24.70;57.50
49463;BME280;35357;51.722;0.500;2022-09-12T11:16:31;100948.19;;;26.47;53.85
49463;BME280;35357;51.722;0.500;2022-09-12T11:19:15;100941.79;;;26.48;54.01
49463;BME280;35357;51.722;0.500;2022-09-12T11:22:00;100943.99;;;27.37;53.63
49463;BME280;35357;51.722;0.500;2022-09-12T11:24:49;100936.08;;;26.40;54.22
49463;BME280;35357;51.722;0.500;2022-09-12T11:27:34;100935.30;;;27.18;53.04
49463;BME280;35357;51.722;0.500;2022-09-12T11:30:10;100941.92;;;27.05;52.58
49463;BME280;35357;51.722;0.500;2022-09-12T11:32:48;100945.80;;;27.30;52.47
49463;BME280;35357;51.722;0.500;2022-09-12T11:35:23;100949.69;;;26.82;52.26
49463;BME280;35357;51.722;0.500;2022-09-12T11:38:11;100941.47;;;26.77;51.81
49463;BME280;35357;51.722;0.500;2022-09-12T11:40:44;100932.81;;;27.07;50.98
49463;BME280;35357;51.722;0.500;2022-09-12T11:43:22;100927.44;;;27.20;51.58
49463;BME280;35357;51.722;0.500;2022-09-12T11:45:52;100923.29;;;27.08;52.36
49463;BME280;35357;51.722;0.500;2022-09-12T11:48:27;100922.81;;;27.81;50.16
49463;BME280;35357;51.722;0.500;2022-09-12T11:50:59;100922.07;;;27.07;50.80
49463;BME280;35357;51.722;0.500;2022-09-12T11:53:31;100919.20;;;28.27;50.07
49463;BME280;35357;51.722;0.500;2022-09-12T11:56:06;100920.35;;;28.29;48.81
49463;BME280;35357;51.722;0.500;2022-09-12T11:58:36;100923.15;;;28.42;49.96
49463;BME280;35357;51.722;0.500;2022-09-12T12:01:11;100922.54;;;28.78;47.43
49463;BME280;35357;51.722;0.500;2022-09-12T12:03:43;100919.65;;;28.60;47.97
49463;BME280;35357;51.722;0.500;2022-09-12T12:06:14;100917.72;;;28.31;49.05
49463;BME280;35357;51.722;0.500;2022-09-12T12:08:44;100915.70;;;29.09;48.24
49463;BME280;35357;51.722;0.500;2022-09-12T12:11:12;100913.34;;;28.71;47.36
49463;BME280;35357;51.722;0.500;2022-09-12T12:13:45;100906.40;;;28.49;48.39
49463;BME280;35357;51.722;0.500;2022-09-12T12:16:18;100912.14;;;28.49;47.67
49463;BME280;35357;51.722;0.500;2022-09-12T12:18:53;100914.24;;;28.15;49.10
49463;BME280;35357;51.722;0.500;2022-09-12T12:21:34;100919.53;;;28.06;48.58
49463;BME280;35357;51.722;0.500;2022-09-12T12:24:13;100913.99;;;28.55;47.91
49463;BME280;35357;51.722;0.500;2022-09-12T12:26:52;100909.33;;;28.94;47.49
49463;BME280;35357;51.722;0.500;2022-09-12T12:29:37;100904.22;;;27.98;49.05
49463;BME280;35357;51.722;0.500;2022-09-12T12:32:22;100901.70;;;28.56;48.22
49463;BME280;35357;51.722;0.500;2022-09-12T12:35:02;100902.43;;;27.88;47.29
49463;BME280;35357;51.722;0.500;2022-09-12T12:38:00;100896.45;;;28.38;46.66
49463;BME280;35357;51.722;0.500;2022-09-12T12:40:29;100892.29;;;28.45;46.43
49463;BME280;35357;51.722;0.500;2022-09-12T12:42:59;100889.86;;;28.30;47.59
49463;BME280;35357;51.722;0.500;2022-09-12T12:46:37;100892.73;;;27.52;47.86
49463;BME280;35357;51.722;0.500;2022-09-12T12:49:08;100895.11;;;27.77;46.83
49463;BME280;35357;51.722;0.500;2022-09-12T12:52:15;100891.14;;;26.58;49.28
49463;BME280;35357;51.722;0.500;2022-09-12T12:54:55;100890.46;;;27.32;47.11
49463;BME280;35357;51.722;0.500;2022-09-12T12:57:28;100890.69;;;26.76;49.28
49463;BME280;35357;51.722;0.500;2022-09-12T12:59:59;100895.08;;;27.92;48.16
49463;BME280;35357;51.722;0.500;2022-09-12T13:02:32;100891.13;;;27.63;48.51
49463;BME280;35357;51.722;0.500;2022-09-12T13:05:03;100885.59;;;27.75;46.59
49463;BME280;35357;51.722;0.500;2022-09-12T13:07:35;100880.62;;;26.41;48.91
49463;BME280;35357;51.722;0.500;2022-09-12T13:10:05;66588.06;;;11.42;81.20
49463;BME280;35357;51.722;0.500;2022-09-12T13:12:36;100881.44;;;27.62;47.51
49463;BME280;35357;51.722;0.500;2022-09-12T13:15:47;100879.05;;;28.29;45.83